Time;durP1;ratioP1;P1;durP2;ratioP2;P2;SDS_P1;SDS_P2;PMS_P1;PMS_P2;Temp;Humidity;BMP_temperature;BMP_pressure;BME280_temperature;BME280_humidity;BME280_pressure;Samples;Min_cycle;Max_cycle;Signal;HPM_P1;HPM_P2
2021/08/14 00:01:54;;;;;;;20.60;4.78;;;;;;;18.05;74.92;102249.06;4962131;28;20121;-49
2021/08/14 00:04:19;;;;;;;14.48;4.53;;;;;;;18.05;75.10;102242.91;4966774;28;20081;-46
2021/08/14 00:06:45;;;;;;;20.90;5.28;;;;;;;18.04;75.13;102228.84;4959099;28;20430;-47
2021/08/14 00:09:10;;;;;;;20.38;4.82;;;;;;;18.06;75.03;102228.81;4965807;28;20101;-50
2021/08/14 00:11:35;;;;;;;26.27;5.60;;;;;;;18.02;74.98;102233.22;4966132;28;20098;-49
2021/08/14 00:14:01;;;;;;;20.67;4.57;;;;;;;18.00;75.37;102234.06;4967446;28;20022;-45
2021/08/14 00:16:27;;;;;;;22.88;5.28;;;;;;;18.01;75.54;102234.09;4966581;28;20410;-48
2021/08/14 00:18:52;;;;;;;23.27;5.03;;;;;;;17.95;75.14;102233.19;4961863;28;20080;-48
2021/08/14 00:21:18;;;;;;;17.77;5.35;;;;;;;17.93;75.48;102241.06;4965303;28;20428;-46
2021/08/14 00:23:43;;;;;;;23.35;5.40;;;;;;;17.91;75.31;102234.94;4964996;28;20514;-49
2021/08/14 00:26:08;;;;;;;22.27;5.20;;;;;;;17.90;75.39;102243.72;4968076;28;20433;-49
2021/08/14 00:28:34;;;;;;;21.48;5.45;;;;;;;17.88;75.73;102244.56;4965725;28;20051;-47
2021/08/14 00:30:59;;;;;;;24.67;5.88;;;;;;;17.83;76.43;102236.63;4965273;28;20037;-49
2021/08/14 00:33:25;;;;;;;24.55;5.47;;;;;;;17.80;76.58;102237.53;4962293;28;20390;-50
2021/08/14 00:35:50;;;;;;;23.25;6.03;;;;;;;17.78;76.86;102225.19;4962313;28;20037;-49
2021/08/14 00:38:15;;;;;;;18.63;5.55;;;;;;;17.78;76.70;102226.06;4962871;28;20045;-49
2021/08/14 00:40:41;;;;;;;25.52;5.40;;;;;;;17.82;76.78;102226.97;4960234;28;20060;-45
2021/08/14 00:43:07;;;;;;;29.33;5.65;;;;;;;17.85;76.76;102219.06;4963092;28;20433;-49
2021/08/14 00:45:39;;;;;;;20.33;5.72;;;;;;;17.89;76.43;102220.84;4963745;28;20018;-50
2021/08/14 00:48:06;;;;;;;23.25;5.00;;;;;;;17.97;76.09;102226.16;4960988;28;20034;-47
2021/08/14 00:50:31;;;;;;;22.13;5.53;;;;;;;17.96;76.08;102227.91;4967604;28;20038;-47
2021/08/14 00:52:56;;;;;;;25.92;5.47;;;;;;;17.95;76.23;102231.44;4964922;28;20045;-49
2021/08/14 00:55:22;;;;;;;20.17;5.35;;;;;;;18.03;76.29;102226.19;4971308;28;20033;-50
2021/08/14 00:57:47;;;;;;;18.10;5.28;;;;;;;18.08;75.76;102230.59;4965799;28;20532;-50
2021/08/14 01:00:13;;;;;;;23.08;5.00;;;;;;;18.08;75.99;102227.97;4949413;28;20121;-51
2021/08/14 01:02:38;;;;;;;30.58;6.07;;;;;;;18.01;76.36;102220.00;4962527;28;20026;-47
2021/08/14 01:05:04;;;;;;;16.60;5.22;;;;;;;18.02;76.59;102216.50;4960137;28;20042;-49
2021/08/14 01:07:30;;;;;;;23.98;5.45;;;;;;;18.02;76.35;102217.38;4967162;28;20088;-48
2021/08/14 01:09:55;;;;;;;24.13;5.20;;;;;;;18.03;76.49;102210.34;4966164;28;20022;-46
2021/08/14 01:12:20;;;;;;;21.15;5.72;;;;;;;17.95;76.60;102209.44;4958510;28;20118;-47
2021/08/14 01:14:47;;;;;;;19.80;5.50;;;;;;;17.94;76.88;102212.94;4964897;28;20119;-48
2021/08/14 01:17:13;;;;;;;25.13;5.47;;;;;;;17.93;76.47;102209.41;4976338;28;20486;-49
2021/08/14 01:19:39;;;;;;;22.45;5.25;;;;;;;17.94;76.59;102213.81;4961630;28;20262;-48
2021/08/14 01:22:09;;;;;;;22.38;5.32;;;;;;;17.93;76.49;102213.84;4968250;28;20181;-47
2021/08/14 01:24:35;;;;;;;20.55;5.03;;;;;;;17.92;76.21;102212.97;4963083;28;20030;-51
2021/08/14 01:27:00;;;;;;;24.80;5.40;;;;;;;18.06;75.86;102211.22;4964753;28;20030;-48
2021/08/14 01:29:26;;;;;;;18.23;5.00;;;;;;;17.96;76.00;102213.84;4957993;28;20037;-47
2021/08/14 01:31:51;;;;;;;24.90;5.75;;;;;;;17.92;76.36;102210.31;4961072;28;20026;-47
2021/08/14 01:34:19;;;;;;;16.73;5.10;;;;;;;17.90;76.22;102205.91;4968483;28;20117;-46
2021/08/14 01:36:47;;;;;;;25.38;6.03;;;;;;;17.86;76.80;102201.50;4966961;28;20038;-47
2021/08/14 01:39:13;;;;;;;27.70;5.88;;;;;;;17.85;76.77;102195.34;4970889;28;20046;-51
2021/08/14 01:41:59;;;;;;;20.40;5.50;;;;;;;17.84;76.84;102197.09;4966231;28;20043;-45
2021/08/14 01:44:25;;;;;;;19.15;5.47;;;;;;;17.83;77.03;102194.44;4968529;28;20498;-47
2021/08/14 01:46:51;;;;;;;25.95;5.85;;;;;;;17.83;77.14;102195.31;4982341;28;20038;-50
2021/08/14 01:49:16;;;;;;;24.17;5.25;;;;;;;17.85;77.20;102195.34;4963442;28;20381;-49
2021/08/14 01:51:42;;;;;;;26.92;6.30;;;;;;;17.82;77.54;102193.53;4970897;28;20576;-48
2021/08/14 01:54:07;;;;;;;25.65;5.43;;;;;;;17.87;77.67;102193.56;4961476;28;20098;-47
2021/08/14 01:56:33;;;;;;;24.15;5.38;;;;;;;17.93;77.13;102187.47;4974409;28;21280;-52
2021/08/14 01:58:59;;;;;;;23.38;5.15;;;;;;;17.90;77.28;102188.31;4967272;28;20048;-49
2021/08/14 02:01:25;;;;;;;25.17;5.78;;;;;;;17.87;77.34;102187.44;4964895;28;20592;-49
2021/08/14 02:03:51;;;;;;;25.88;6.10;;;;;;;17.87;77.46;102184.78;4972466;28;20110;-51
2021/08/14 02:06:18;;;;;;;25.63;6.13;;;;;;;17.86;77.64;102196.22;4965964;28;20026;-46
2021/08/14 02:08:43;;;;;;;27.50;5.93;;;;;;;17.88;77.80;102184.78;4965618;28;20206;-49
2021/08/14 02:11:22;;;;;;;21.45;6.03;;;;;;;17.95;77.45;102181.28;4958161;28;20035;-46
2021/08/14 02:13:49;;;;;;;29.42;6.43;;;;;;;17.96;77.55;102176.91;4985888;28;20387;-48
2021/08/14 02:16:15;;;;;;;30.80;6.05;;;;;;;17.93;77.39;102182.19;4967872;28;20093;-48
2021/08/14 02:18:40;;;;;;;20.05;5.93;;;;;;;17.92;77.70;102181.28;4969342;28;20342;-46
2021/08/14 02:21:08;;;;;;;23.90;6.05;;;;;;;17.97;77.23;102179.56;4960217;28;20250;-47
2021/08/14 02:23:33;;;;;;;29.63;5.57;;;;;;;17.94;77.26;102171.59;4967152;28;20023;-49
2021/08/14 02:25:59;;;;;;;21.75;5.78;;;;;;;17.92;77.42;102175.13;4975711;28;20101;-45
2021/08/14 02:28:24;;;;;;;22.83;5.43;;;;;;;17.96;77.21;102169.88;4964588;28;20231;-48
2021/08/14 02:30:50;;;;;;;22.25;5.55;;;;;;;18.00;77.13;102170.75;4964468;28;20027;-47
2021/08/14 02:33:15;;;;;;;27.80;6.15;;;;;;;17.97;77.10;102165.47;4964998;28;20506;-52
2021/08/14 02:35:41;;;;;;;25.67;5.70;;;;;;;18.01;77.01;102161.97;4970498;28;20023;-52
2021/08/14 02:38:06;;;;;;;22.95;5.38;;;;;;;17.99;77.36;102164.59;4962423;28;20504;-50
2021/08/14 02:40:34;;;;;;;22.42;5.07;;;;;;;18.02;77.07;102161.09;4970190;28;20035;-48
2021/08/14 02:42:59;;;;;;;28.08;6.15;;;;;;;17.98;77.27;102165.50;4964263;28;20034;-47
2021/08/14 02:45:25;;;;;;;25.42;5.28;;;;;;;18.02;77.04;102166.38;4972811;28;20060;-47
2021/08/14 02:47:50;;;;;;;23.38;5.55;;;;;;;17.95;77.34;102172.50;4966575;28;20058;-49
2021/08/14 02:50:15;;;;;;;22.15;5.35;;;;;;;17.94;77.59;102165.44;4967560;28;20026;-47
2021/08/14 02:52:41;;;;;;;30.13;5.75;;;;;;;17.99;77.52;102164.59;4967483;28;20022;-52
2021/08/14 02:55:07;;;;;;;26.77;6.22;;;;;;;17.99;77.52;102164.59;4971546;28;20045;-46
2021/08/14 02:57:32;;;;;;;25.17;6.07;;;;;;;17.93;77.51;102164.56;4960123;28;20018;-46
2021/08/14 02:59:58;;;;;;;24.73;6.00;;;;;;;17.94;77.79;102165.44;4972144;28;20034;-49
2021/08/14 03:02:23;;;;;;;25.80;5.35;;;;;;;17.96;77.48;102164.59;4968153;28;20251;-47
2021/08/14 03:04:48;;;;;;;29.75;5.95;;;;;;;17.95;77.54;102159.28;4973090;28;20397;-52
2021/08/14 03:07:14;;;;;;;21.33;5.40;;;;;;;17.94;77.55;102160.16;4966219;28;20010;-47
2021/08/14 03:09:39;;;;;;;25.55;5.70;;;;;;;17.95;77.83;102156.66;4969828;28;20269;-50
2021/08/14 03:12:05;;;;;;;24.13;5.97;;;;;;;17.98;77.49;102168.13;4971246;28;20042;-48
2021/08/14 03:14:31;;;;;;;33.47;5.85;;;;;;;17.96;77.64;102163.72;4966298;28;20119;-47
2021/08/14 03:16:56;;;;;;;30.08;5.50;;;;;;;17.96;77.71;102167.22;4982577;28;20093;-51
2021/08/14 03:19:21;;;;;;;26.30;5.85;;;;;;;17.97;77.46;102169.00;4980204;28;20083;-47
2021/08/14 03:21:47;;;;;;;26.02;5.90;;;;;;;17.94;77.67;102168.97;4962579;28;20676;-48
2021/08/14 03:24:12;;;;;;;26.30;6.10;;;;;;;17.89;77.89;102165.44;4972793;28;20575;-49
2021/08/14 03:26:38;;;;;;;26.20;5.78;;;;;;;17.85;78.06;102158.41;4968961;28;20382;-51
2021/08/14 03:29:03;;;;;;;21.98;5.95;;;;;;;17.81;78.25;102169.78;4968926;28;20116;-48
2021/08/14 03:31:29;;;;;;;25.35;6.03;;;;;;;17.84;78.62;102162.78;4962047;28;20030;-46
2021/08/14 03:33:54;;;;;;;24.27;5.85;;;;;;;17.81;78.77;102162.75;4968800;28;20445;-51
2021/08/14 03:36:20;;;;;;;29.88;5.75;;;;;;;17.79;78.65;102159.25;4969408;28;20022;-48
2021/08/14 03:38:45;;;;;;;24.00;5.72;;;;;;;17.77;78.68;102157.47;4969681;28;20031;-48
2021/08/14 03:41:10;;;;;;;28.50;6.07;;;;;;;17.73;79.07;102151.31;4958453;28;20026;-49
2021/08/14 03:43:36;;;;;;;22.63;5.60;;;;;;;17.69;78.73;102149.53;4969435;28;20034;-48
2021/08/14 03:46:02;;;;;;;29.77;6.50;;;;;;;17.67;78.68;102140.75;4968104;28;20038;-50
2021/08/14 03:48:28;;;;;;;22.65;5.45;;;;;;;17.67;78.56;102143.38;4966407;28;20144;-50
2021/08/14 03:50:53;;;;;;;22.40;5.63;;;;;;;17.61;78.67;102143.34;4967452;28;20035;-47
2021/08/14 03:53:19;;;;;;;27.20;5.97;;;;;;;17.58;79.12;102147.69;4967692;28;20026;-46
2021/08/14 03:55:44;;;;;;;22.25;6.22;;;;;;;17.55;79.25;102145.03;4965074;28;20026;-46
2021/08/14 03:58:10;;;;;;;25.30;5.93;;;;;;;17.55;79.23;102145.03;4967344;28;20450;-52
2021/08/14 04:00:35;;;;;;;19.83;5.57;;;;;;;17.48;78.98;102141.50;4967855;28;20450;-49
2021/08/14 04:03:01;;;;;;;24.60;6.43;;;;;;;17.39;79.37;102133.50;4961229;28;20513;-53
2021/08/14 04:05:26;;;;;;;29.10;6.47;;;;;;;17.34;79.47;102140.53;4966559;28;20030;-50
2021/08/14 04:07:52;;;;;;;25.25;6.20;;;;;;;17.31;79.33;102144.03;4967448;28;20030;-48
2021/08/14 04:10:17;;;;;;;28.77;6.25;;;;;;;17.26;79.71;102153.66;4963852;28;20038;-50
2021/08/14 04:12:43;;;;;;;24.48;5.97;;;;;;;17.25;79.72;102137.84;4962689;28;20482;-48
2021/08/14 04:15:09;;;;;;;34.65;7.63;;;;;;;17.21;80.36;102141.31;4962445;28;20030;-48
2021/08/14 04:17:34;;;;;;;28.42;6.32;;;;;;;17.22;79.66;102140.44;4970142;28;20556;-49
2021/08/14 04:20:00;;;;;;;26.75;6.13;;;;;;;17.32;79.17;102145.78;4960679;28;20039;-48
2021/08/14 04:22:26;;;;;;;22.67;6.13;;;;;;;17.17;79.92;102142.19;4966982;28;20137;-48
2021/08/14 04:24:52;;;;;;;30.95;6.43;;;;;;;17.17;79.79;102139.53;4962893;28;20479;-48
2021/08/14 04:27:18;;;;;;;33.05;7.25;;;;;;;17.12;80.35;102134.25;4965765;28;20037;-48
2021/08/14 04:29:43;;;;;;;26.30;6.57;;;;;;;17.07;80.42;102130.72;4968251;28;20038;-48
2021/08/14 04:32:08;;;;;;;29.77;6.55;;;;;;;17.04;80.57;102131.56;4960302;28;20041;-47
2021/08/14 04:34:34;;;;;;;33.00;7.38;;;;;;;17.06;80.48;102136.84;4967200;28;20426;-47
2021/08/14 04:36:59;;;;;;;27.17;7.03;;;;;;;17.04;80.88;102136.81;4956322;28;20053;-47
2021/08/14 04:39:25;;;;;;;31.52;7.60;;;;;;;17.10;80.77;102137.75;4969037;28;20478;-50
2021/08/14 04:41:50;;;;;;;27.15;7.63;;;;;;;17.10;80.51;102128.09;4966249;28;20545;-48
2021/08/14 04:44:15;;;;;;;29.88;7.32;;;;;;;17.08;80.55;102131.59;4963433;28;20084;-48
2021/08/14 04:46:41;;;;;;;31.13;7.60;;;;;;;17.09;80.78;102131.59;4966683;28;20148;-49
2021/08/14 04:49:06;;;;;;;33.65;7.57;;;;;;;17.18;80.42;102139.56;4965208;28;20053;-53
2021/08/14 04:51:32;;;;;;;29.90;7.68;;;;;;;17.28;80.15;102132.59;4966608;28;20034;-50
2021/08/14 04:53:57;;;;;;;25.73;6.68;;;;;;;17.38;80.08;102135.28;4963193;28;20406;-47
2021/08/14 04:56:23;;;;;;;23.73;7.07;;;;;;;17.42;79.50;102138.81;4962512;28;20026;-49
2021/08/14 04:58:48;;;;;;;25.42;7.40;;;;;;;17.34;79.82;102138.78;4968168;28;20209;-49
2021/08/14 05:01:14;;;;;;;25.55;7.00;;;;;;;17.39;78.97;102136.16;4961299;28;20077;-48
2021/08/14 05:03:39;;;;;;;26.10;6.47;;;;;;;17.42;79.04;102142.34;4963914;28;20058;-49
2021/08/14 05:06:08;;;;;;;25.00;7.05;;;;;;;17.52;78.55;102140.63;4967837;28;20040;-46
2021/08/14 05:08:34;;;;;;;25.27;6.97;;;;;;;17.66;77.55;102135.44;4971002;28;20042;-48
2021/08/14 05:11:00;;;;;;;20.60;6.68;;;;;;;17.68;77.30;102137.25;4972386;28;20458;-46
2021/08/14 05:13:25;;;;;;;22.27;6.72;;;;;;;17.72;77.15;102140.75;4969031;28;20505;-48
2021/08/14 05:15:51;;;;;;;25.98;7.18;;;;;;;17.75;76.78;102130.19;4969418;28;20034;-48
2021/08/14 05:18:16;;;;;;;24.17;7.25;;;;;;;17.79;76.26;102135.50;4968952;28;20053;-50
2021/08/14 05:20:42;;;;;;;21.95;7.07;;;;;;;17.88;75.93;102133.75;4964566;28;20035;-49
2021/08/14 05:23:08;;;;;;;17.65;6.32;;;;;;;17.97;76.15;102142.59;4974873;28;20574;-49
2021/08/14 05:25:33;;;;;;;18.88;6.90;;;;;;;18.16;75.22;102138.25;4971394;28;20121;-45
2021/08/14 05:27:58;;;;;;;22.15;6.65;;;;;;;18.32;74.60;102142.69;4963332;28;20171;-47
2021/08/14 05:30:24;;;;;;;21.75;6.85;;;;;;;18.53;74.14;102145.38;4967823;28;20034;-48
2021/08/14 05:32:50;;;;;;;22.65;6.93;;;;;;;18.71;73.76;102151.56;4970084;28;20026;-48
2021/08/14 05:35:18;;;;;;;21.30;6.50;;;;;;;18.93;72.79;102159.47;4963940;28;20156;-49
2021/08/14 05:37:43;;;;;;;24.08;7.15;;;;;;;19.14;72.05;102163.00;4968021;28;20030;-48
2021/08/14 05:40:09;;;;;;;24.27;6.97;;;;;;;19.32;71.27;102157.66;4969752;28;20398;-51
2021/08/14 05:42:34;;;;;;;21.80;6.90;;;;;;;19.41;70.51;102153.22;4968831;28;20496;-50
2021/08/14 05:45:00;;;;;;;22.52;7.47;;;;;;;19.39;70.29;102149.69;4967442;28;20069;-51
2021/08/14 05:47:25;;;;;;;23.65;7.50;;;;;;;19.40;70.45;102145.28;4971107;28;20150;-50
2021/08/14 05:49:50;;;;;;;21.52;7.20;;;;;;;19.32;70.37;102144.44;4965774;28;20100;-51
2021/08/14 05:52:16;;;;;;;20.27;7.30;;;;;;;19.33;70.87;102141.78;4965459;28;20482;-47
2021/08/14 05:54:41;;;;;;;26.08;8.20;;;;;;;19.30;71.19;102143.56;4965552;28;20069;-49
2021/08/14 05:57:07;;;;;;;26.98;8.20;;;;;;;19.23;71.51;102141.81;4978978;28;20393;-48
2021/08/14 05:59:32;;;;;;;26.23;8.05;;;;;;;19.37;71.77;102143.56;4965990;28;20042;-50
2021/08/14 06:01:59;;;;;;;27.90;8.10;;;;;;;19.58;70.81;102145.25;4963754;28;20034;-50
2021/08/14 06:04:24;;;;;;;26.20;8.00;;;;;;;19.80;70.65;102148.72;4971405;28;20778;-47
2021/08/14 06:06:50;;;;;;;29.38;8.10;;;;;;;20.01;69.85;102142.44;4964719;28;20113;-49
2021/08/14 06:09:15;;;;;;;24.42;7.78;;;;;;;20.21;68.57;102143.19;4967602;28;20030;-49
2021/08/14 06:11:41;;;;;;;30.75;8.45;;;;;;;20.26;68.59;102144.94;4966456;28;20266;-48
2021/08/14 06:14:07;;;;;;;22.10;7.72;;;;;;;20.36;68.84;102147.56;4969989;28;20558;-47
2021/08/14 06:16:32;;;;;;;30.42;8.73;;;;;;;20.57;68.45;102142.09;4970805;28;20030;-46
2021/08/14 06:18:58;;;;;;;24.60;8.20;;;;;;;21.12;67.13;102146.91;4965893;28;20060;-49
2021/08/14 06:21:23;;;;;;;30.40;8.73;;;;;;;22.16;63.44;102134.19;4966181;28;20041;-47
2021/08/14 06:23:48;;;;;;;27.08;8.10;;;;;;;22.92;60.40;102148.97;4962593;28;20551;-46
2021/08/14 06:26:14;;;;;;;21.50;8.10;;;;;;;23.21;59.86;102153.75;4961248;28;20393;-48
2021/08/14 06:28:39;;;;;;;26.65;8.82;;;;;;;23.79;57.39;102142.84;4964841;28;20053;-49
2021/08/14 06:31:05;;;;;;;25.20;7.50;;;;;;;24.27;56.05;102150.72;4965201;28;20026;-46
2021/08/14 06:33:30;;;;;;;28.02;8.38;;;;;;;23.98;56.65;102153.97;4966494;28;20531;-48
2021/08/14 06:35:55;;;;;;;22.88;8.50;;;;;;;23.53;59.00;102154.03;4968839;28;20399;-47
2021/08/14 06:38:21;;;;;;;28.08;8.82;;;;;;;23.35;59.07;102163.22;4966169;28;20316;-49
2021/08/14 06:40:47;;;;;;;30.00;9.35;;;;;;;22.95;59.90;102160.41;4967741;28;20393;-47
2021/08/14 06:43:12;;;;;;;29.10;9.07;;;;;;;22.73;61.17;102161.69;4967497;28;20213;-49
2021/08/14 06:45:38;;;;;;;24.70;9.18;;;;;;;23.26;60.09;102171.38;4970658;28;20054;-46
2021/08/14 06:48:03;;;;;;;24.45;9.05;;;;;;;23.38;60.26;102180.91;4966552;28;20061;-49
2021/08/14 06:50:29;;;;;;;27.48;9.60;;;;;;;23.19;59.92;102168.84;4960367;28;20038;-47
2021/08/14 06:52:54;;;;;;;31.73;9.77;;;;;;;22.86;60.57;102168.56;4963528;28;20030;-50
2021/08/14 06:55:20;;;;;;;24.60;9.75;;;;;;;22.62;60.86;102180.44;4968932;28;20035;-48
2021/08/14 06:57:45;;;;;;;28.73;10.25;;;;;;;22.18;63.76;102170.47;4959680;28;20373;-48
2021/08/14 07:00:11;;;;;;;28.90;10.73;;;;;;;22.29;62.77;102177.41;4968873;28;20061;-51
2021/08/14 07:02:37;;;;;;;29.58;10.75;;;;;;;22.58;62.50;102170.75;4964571;28;20109;-49
2021/08/14 07:05:04;;;;;;;28.02;10.07;;;;;;;23.23;60.69;102166.13;4967430;28;20089;-46
2021/08/14 07:07:29;;;;;;;27.13;10.13;;;;;;;24.02;59.19;102161.88;4965218;28;20889;-47
2021/08/14 07:09:55;;;;;;;27.35;9.95;;;;;;;24.95;55.51;102163.22;4963274;28;20114;-46
2021/08/14 07:12:20;;;;;;;27.85;9.80;;;;;;;25.52;53.23;102167.94;4967135;28;20108;-47
2021/08/14 07:14:46;;;;;;;26.80;9.82;;;;;;;25.23;55.42;102168.75;4966981;28;20108;-50
2021/08/14 07:17:11;;;;;;;27.83;9.35;;;;;;;25.55;53.87;102169.66;4964304;28;20030;-47
2021/08/14 07:19:36;;;;;;;28.10;9.50;;;;;;;26.28;50.98;102162.16;4962004;28;20097;-50
2021/08/14 07:22:02;;;;;;;23.92;9.13;;;;;;;26.63;50.50;102164.56;4963869;28;20053;-48
2021/08/14 07:24:27;;;;;;;21.65;8.52;;;;;;;26.96;51.13;102165.25;4968647;28;20466;-51
2021/08/14 07:26:52;;;;;;;26.45;8.88;;;;;;;26.63;50.32;102161.91;4967614;28;20036;-46
2021/08/14 07:29:18;;;;;;;29.60;10.35;;;;;;;26.38;50.35;102159.16;4963422;28;20042;-46
2021/08/14 07:31:43;;;;;;;24.15;10.13;;;;;;;26.01;52.17;102161.19;4961833;28;20033;-47
2021/08/14 07:34:08;;;;;;;25.00;9.77;;;;;;;25.96;52.09;102166.66;4977564;28;20027;-49
2021/08/14 07:36:34;;;;;;;28.38;9.93;;;;;;;25.44;54.42;102164.59;4963420;28;20026;-49
2021/08/14 07:38:59;;;;;;;25.40;9.60;;;;;;;25.04;55.57;102159.47;4962647;28;20030;-49
2021/08/14 07:41:25;;;;;;;27.35;9.93;;;;;;;24.80;54.71;102163.59;4960719;28;20085;-47
2021/08/14 07:43:50;;;;;;;25.98;9.35;;;;;;;25.23;54.84;102166.06;4961358;28;20038;-47
2021/08/14 07:46:15;;;;;;;25.70;9.48;;;;;;;25.61;53.49;102166.84;4964613;28;20033;-50
2021/08/14 07:48:41;;;;;;;25.00;9.20;;;;;;;26.39;52.29;102150.22;4966129;28;20037;-47
2021/08/14 07:51:06;;;;;;;26.10;8.98;;;;;;;26.24;51.14;102156.91;4967585;28;20088;-47
2021/08/14 07:53:32;;;;;;;25.42;9.35;;;;;;;26.01;52.50;102158.50;4961074;28;20042;-47
2021/08/14 07:55:57;;;;;;;23.70;8.65;;;;;;;26.40;52.79;102153.75;4962020;28;20537;-47
2021/08/14 07:58:23;;;;;;;22.90;7.47;;;;;;;26.42;50.66;102155.44;4959926;28;20037;-46
2021/08/14 08:00:48;;;;;;;22.85;7.60;;;;;;;26.12;53.15;102156.38;4962617;28;20034;-48
2021/08/14 08:03:14;;;;;;;24.70;7.53;;;;;;;25.27;55.03;102158.84;4949997;28;20532;-50
2021/08/14 08:05:39;;;;;;;27.73;8.63;;;;;;;24.99;55.81;102142.72;4958019;28;20018;-48
2021/08/14 08:08:05;;;;;;;24.52;7.97;;;;;;;24.72;55.56;102146.91;4963906;28;20026;-47
2021/08/14 08:10:32;;;;;;;24.25;8.07;;;;;;;24.36;55.82;102155.81;4961370;28;20026;-48
2021/08/14 08:12:57;;;;;;;24.58;8.23;;;;;;;24.15;56.70;102154.50;4961475;28;20534;-46
2021/08/14 08:15:24;;;;;;;26.02;8.07;;;;;;;24.11;58.17;102156.34;4962519;28;20061;-48
2021/08/14 08:17:49;;;;;;;30.15;7.78;;;;;;;24.11;57.67;102150.13;4960697;28;20033;-47
2021/08/14 08:20:16;;;;;;;27.15;8.18;;;;;;;24.21;57.79;102157.91;4960674;28;20395;-50
2021/08/14 08:22:42;;;;;;;23.60;7.05;;;;;;;24.46;56.25;102157.31;4963825;28;20027;-46
2021/08/14 08:25:08;;;;;;;24.65;7.22;;;;;;;24.82;55.68;102155.56;4969481;28;20042;-48
2021/08/14 08:27:48;;;;;;;21.27;7.43;;;;;;;25.16;55.11;102150.25;4961160;28;20603;-52
2021/08/14 08:30:16;;;;;;;21.00;7.22;;;;;;;25.05;54.99;102140.75;4964168;28;20382;-51
2021/08/14 08:32:42;;;;;;;23.00;7.47;;;;;;;24.70;56.63;102145.22;4967543;28;20428;-51
2021/08/14 08:35:08;;;;;;;25.05;7.35;;;;;;;24.56;55.86;102142.88;4960952;28;20539;-50
2021/08/14 08:37:33;;;;;;;20.90;7.40;;;;;;;24.66;56.61;102142.59;4964212;28;20379;-47
2021/08/14 08:39:59;;;;;;;25.17;6.95;;;;;;;25.21;54.93;102143.00;4962831;28;20629;-49
2021/08/14 08:42:25;;;;;;;24.48;7.10;;;;;;;25.31;56.49;102147.19;4966535;28;20040;-50
2021/08/14 08:44:50;;;;;;;21.60;7.13;;;;;;;25.70;55.17;102142.50;4969096;28;20038;-49
2021/08/14 08:47:19;;;;;;;22.17;6.65;;;;;;;25.70;53.29;102145.19;4986586;28;20031;-48
2021/08/14 08:49:56;;;;;;;22.75;6.82;;;;;;;25.85;52.42;102150.97;4971248;28;20034;-48
2021/08/14 08:52:22;;;;;;;18.17;6.30;;;;;;;25.79;54.19;102152.94;4968676;28;20030;-48
2021/08/14 08:54:49;;;;;;;18.27;6.18;;;;;;;25.95;51.82;102151.56;4979441;28;20035;-49
2021/08/14 08:57:14;;;;;;;19.67;6.60;;;;;;;25.85;51.66;102134.06;4970177;28;20038;-48
2021/08/14 08:59:39;;;;;;;24.13;5.88;;;;;;;25.29;52.44;102144.56;4977568;28;20427;-49
2021/08/14 09:02:29;;;;;;;14.95;5.25;;;;;;;25.59;52.90;102136.63;4961578;28;20040;-49
2021/08/14 09:05:06;;;;;;;15.43;5.00;;;;;;;25.98;52.25;102145.25;4971303;28;20018;-47
2021/08/14 09:07:32;;;;;;;19.67;5.70;;;;;;;25.54;52.80;102133.19;4967449;28;20041;-50
2021/08/14 09:09:59;;;;;;;18.65;5.95;;;;;;;25.34;54.08;102147.97;4966071;28;20030;-49
2021/08/14 09:12:31;;;;;;;13.88;4.70;;;;;;;25.95;51.02;102148.00;4961112;28;20035;-51
2021/08/14 09:14:56;;;;;;;16.27;5.10;;;;;;;25.96;50.37;102147.97;4963907;28;20545;-49
2021/08/14 09:17:26;;;;;;;17.48;4.85;;;;;;;25.65;51.13;102134.66;4966977;28;20035;-52
2021/08/14 09:20:13;;;;;;;13.77;4.60;;;;;;;25.94;49.17;102140.91;4965977;28;20761;-52
2021/08/14 09:22:41;;;;;;;16.27;4.90;;;;;;;25.77;49.31;102136.94;4973669;28;20184;-48
2021/08/14 09:25:25;;;;;;;14.27;4.90;;;;;;;25.58;49.27;102130.41;4970088;28;20223;-47
2021/08/14 09:27:55;;;;;;;13.10;4.55;;;;;;;25.57;51.90;102135.78;4974160;28;20054;-51
2021/08/14 09:30:21;;;;;;;13.98;4.45;;;;;;;25.41;51.82;102143.31;4972924;28;20038;-47
2021/08/14 09:33:08;;;;;;;16.35;4.53;;;;;;;25.41;51.45;102136.19;4969753;28;20030;-48
2021/08/14 09:35:37;;;;;;;14.77;4.70;;;;;;;25.32;50.36;102146.25;4975008;28;20030;-51
2021/08/14 09:38:08;;;;;;;12.90;4.45;;;;;;;25.33;51.17;102148.88;4968488;28;20041;-49
2021/08/14 09:40:40;;;;;;;13.80;4.47;;;;;;;25.38;50.80;102143.41;4966198;28;20302;-46
2021/08/14 09:43:06;;;;;;;17.17;4.90;;;;;;;24.98;52.48;102143.63;4966935;28;20022;-51
2021/08/14 09:45:32;;;;;;;17.05;4.82;;;;;;;24.67;52.26;102144.38;4970084;28;20046;-51
2021/08/14 09:47:57;;;;;;;12.40;4.47;;;;;;;24.66;53.02;102147.94;4971628;28;20058;-46
2021/08/14 09:50:34;;;;;;;15.23;4.43;;;;;;;24.45;53.16;102151.16;4974425;28;20066;-47
2021/08/14 09:53:09;;;;;;;17.35;5.18;;;;;;;24.02;54.56;102151.22;4955672;28;20034;-48
2021/08/14 09:55:35;;;;;;;14.15;4.70;;;;;;;24.01;54.30;102154.78;4967008;28;20053;-47
2021/08/14 09:58:01;;;;;;;13.55;4.55;;;;;;;23.80;55.41;102152.59;4950051;28;20330;-46
2021/08/14 10:00:30;;;;;;;14.27;4.40;;;;;;;23.84;54.00;102147.19;4983165;28;20030;-48
2021/08/14 10:02:58;;;;;;;14.18;4.40;;;;;;;24.00;53.22;102144.16;4946108;28;20042;-48
2021/08/14 10:05:23;;;;;;;15.45;4.60;;;;;;;24.34;53.69;102157.63;4962541;28;20474;-48
2021/08/14 10:07:49;;;;;;;17.00;4.50;;;;;;;24.52;51.27;102151.84;4961544;28;20029;-50
2021/08/14 10:10:14;;;;;;;12.45;4.57;;;;;;;24.64;50.80;102154.25;4957129;28;20029;-49
2021/08/14 10:12:40;;;;;;;13.82;4.68;;;;;;;24.36;52.52;102150.47;4967306;28;20080;-48
2021/08/14 10:15:05;;;;;;;15.25;4.80;;;;;;;24.52;51.26;102151.84;4967428;28;20038;-48
2021/08/14 10:17:33;;;;;;;13.25;4.40;;;;;;;24.55;51.61;102147.34;4963152;28;20044;-53
2021/08/14 10:19:59;;;;;;;15.43;4.65;;;;;;;25.00;51.28;102148.00;4962827;28;20060;-51
2021/08/14 10:22:25;;;;;;;10.82;4.05;;;;;;;25.02;50.04;102148.81;4967250;28;20557;-48
2021/08/14 10:24:51;;;;;;;15.02;4.40;;;;;;;25.07;50.73;102145.19;4955319;28;20026;-49
2021/08/14 10:27:17;;;;;;;12.75;4.50;;;;;;;25.37;50.57;102145.19;4965299;28;20030;-47
2021/08/14 10:29:58;;;;;;;15.40;4.40;;;;;;;25.36;51.68;102154.16;4967139;28;20428;-46
2021/08/14 10:32:29;;;;;;;11.20;4.20;;;;;;;25.15;49.10;102145.81;4964544;28;20027;-48
2021/08/14 10:35:15;;;;;;;12.55;4.15;;;;;;;24.99;50.76;102148.91;4968583;28;20041;-51
2021/08/14 10:37:42;;;;;;;13.57;4.55;;;;;;;25.39;50.51;102138.03;4965491;28;20226;-49
2021/08/14 10:40:08;;;;;;;13.07;4.28;;;;;;;25.61;47.92;102141.00;4964652;28;20715;-46
2021/08/14 10:42:48;;;;;;;13.05;4.18;;;;;;;25.92;48.77;102149.00;4966626;28;20030;-47
2021/08/14 10:45:18;;;;;;;10.13;4.00;;;;;;;25.89;48.54;102156.19;4967431;28;20114;-47
2021/08/14 10:47:45;;;;;;;13.27;3.97;;;;;;;26.14;48.39;102157.22;4965990;28;20077;-50
2021/08/14 10:50:29;;;;;;;11.98;4.10;;;;;;;26.15;46.51;102148.28;4965182;28;20030;-48
2021/08/14 10:53:15;;;;;;;9.30;3.63;;;;;;;25.84;45.28;102145.66;4966613;28;20486;-48
2021/08/14 10:55:42;;;;;;;10.80;3.70;;;;;;;25.54;47.52;102146.53;4962491;28;20710;-55
2021/08/14 10:58:19;;;;;;;12.93;3.90;;;;;;;25.30;48.70;102142.75;4968623;28;20030;-46
2021/08/14 11:00:44;;;;;;;11.98;4.10;;;;;;;25.62;48.91;102144.53;4964176;28;20136;-48
2021/08/14 11:03:11;;;;;;;11.85;3.90;;;;;;;25.76;48.87;102137.88;4968423;28;20038;-51
2021/08/14 11:05:39;;;;;;;13.60;3.78;;;;;;;25.95;46.59;102145.34;4960684;28;20030;-49
2021/08/14 11:08:25;;;;;;;10.57;3.67;;;;;;;26.16;47.26;102132.19;4967725;28;20033;-47
2021/08/14 11:10:50;;;;;;;11.55;3.53;;;;;;;26.01;46.09;102139.81;4963229;28;20039;-47
2021/08/14 11:13:31;;;;;;;11.15;3.72;;;;;;;25.94;47.33;102132.88;4965139;28;20088;-47
2021/08/14 11:15:57;;;;;;;10.10;3.65;;;;;;;25.79;47.68;102140.47;4966773;28;20099;-48